createdAt,value
2023-01-07T00:01:43.817Z,204.57
2023-01-07T00:04:14.122Z,203.70
2023-01-07T00:06:43.805Z,213.18
2023-01-07T00:09:16.687Z,205.90
2023-01-07T00:11:45.477Z,214.45
2023-01-07T00:14:15.003Z,233.82
2023-01-07T00:16:43.968Z,190.15
2023-01-07T00:19:14.686Z,221.48
2023-01-07T00:21:43.421Z,219.75
2023-01-07T00:24:12.749Z,284.77
2023-01-07T00:26:43.496Z,195.88
2023-01-07T00:29:12.179Z,232.18
2023-01-07T00:31:41.898Z,233.20
2023-01-07T00:34:10.885Z,208.52
2023-01-07T00:36:41.799Z,237.18
2023-01-07T00:39:13.397Z,227.27
2023-01-07T00:42:05.403Z,255.48
2023-01-07T00:44:34.592Z,257.75
2023-01-07T00:47:03.416Z,234.98
2023-01-07T00:49:31.909Z,229.70
2023-01-07T00:52:00.500Z,284.63
2023-01-07T00:54:28.949Z,318.20
2023-01-07T00:56:58.729Z,294.73
2023-01-07T00:59:27.243Z,235.73
2023-01-07T01:01:55.891Z,316.50
2023-01-07T01:04:24.410Z,279.77
2023-01-07T01:06:52.877Z,305.77
2023-01-07T01:09:22.372Z,366.92
2023-01-07T01:11:50.850Z,356.38
2023-01-07T01:14:20.924Z,351.48
2023-01-07T01:16:49.323Z,330.20
2023-01-07T01:19:18.288Z,274.83
2023-01-07T01:21:46.834Z,379.25
2023-01-07T01:24:15.328Z,290.40
2023-01-07T01:26:43.819Z,256.75
2023-01-07T01:29:12.340Z,316.45
2023-01-07T01:31:42.172Z,228.50
2023-01-07T01:34:10.673Z,322.95
2023-01-07T01:36:39.232Z,286.27
2023-01-07T01:39:08.064Z,290.05
2023-01-07T01:41:37.041Z,290.25
2023-01-07T01:44:39.787Z,234.52
2023-01-07T01:47:15.737Z,281.13
2023-01-07T01:49:48.242Z,250.77
2023-01-07T01:52:19.012Z,314.85
2023-01-07T01:54:49.887Z,343.50
2023-01-07T01:57:19.837Z,368.27
2023-01-07T01:59:51.666Z,344.48
2023-01-07T02:02:24.456Z,266.02
2023-01-07T02:04:53.517Z,283.92
2023-01-07T02:07:21.897Z,246.25
2023-01-07T02:09:56.290Z,250.95
2023-01-07T02:12:40.304Z,248.63
2023-01-07T02:15:12.509Z,272.40
2023-01-07T02:17:52.169Z,208.93
2023-01-07T02:20:35.460Z,185.55
2023-01-07T02:23:36.197Z,210.77
2023-01-07T02:26:47.709Z,210.48
2023-01-07T02:29:43.275Z,242.52
2023-01-07T02:32:20.425Z,204.05
2023-01-07T02:34:56.171Z,239.43
2023-01-07T02:37:30.709Z,192.65
2023-01-07T02:42:38.196Z,165.27
2023-01-07T02:45:12.605Z,194.13
2023-01-07T02:47:47.157Z,176.70
2023-01-07T02:52:44.235Z,168.20
2023-01-07T02:55:16.845Z,185.48
2023-01-07T02:58:04.643Z,199.35
2023-01-07T03:00:52.256Z,179.00
2023-01-07T03:03:39.559Z,153.48
2023-01-07T03:06:17.573Z,195.68
2023-01-07T03:09:01.445Z,195.90
2023-01-07T03:11:34.670Z,182.45
2023-01-07T03:14:07.701Z,182.65
2023-01-07T03:16:40.343Z,200.32
2023-01-07T03:19:12.769Z,206.52
2023-01-07T03:21:41.271Z,237.52
2023-01-07T03:24:10.326Z,289.15
2023-01-07T03:26:41.744Z,261.23
2023-01-07T03:29:11.682Z,198.82
2023-01-07T03:31:45.507Z,193.50
2023-01-07T03:34:18.071Z,273.58
2023-01-07T03:36:49.252Z,174.05
2023-01-07T03:39:18.178Z,202.98
2023-01-07T03:42:06.400Z,195.15
2023-01-07T03:44:34.802Z,170.70
2023-01-07T03:47:03.215Z,197.00
2023-01-07T03:49:33.237Z,185.18
2023-01-07T03:52:01.603Z,160.93
2023-01-07T03:54:30.117Z,180.82
2023-01-07T03:56:58.988Z,177.45
2023-01-07T03:59:27.396Z,190.85
2023-01-07T04:01:56.016Z,210.23
2023-01-07T04:04:24.579Z,193.00
2023-01-07T04:06:54.417Z,178.00
2023-01-07T04:09:22.917Z,188.88
2023-01-07T04:11:51.395Z,214.38
2023-01-07T04:14:19.827Z,226.15
2023-01-07T04:16:51.027Z,164.93
2023-01-07T04:19:20.644Z,211.15
2023-01-07T04:21:49.166Z,177.43
2023-01-07T04:24:19.138Z,193.95
2023-01-07T04:26:47.633Z,233.45
2023-01-07T04:29:16.095Z,162.13
2023-01-07T04:31:44.631Z,183.45
2023-01-07T04:34:13.329Z,158.52
2023-01-07T04:36:42.002Z,161.85
2023-01-07T04:39:10.400Z,160.00
2023-01-07T04:41:40.351Z,191.63
2023-01-07T04:44:09.506Z,169.63
2023-01-07T04:46:37.817Z,196.02
2023-01-07T04:49:06.184Z,173.05
2023-01-07T04:51:34.689Z,161.27
2023-01-07T04:54:03.028Z,153.50
2023-01-07T04:56:31.416Z,180.55
2023-01-07T04:59:01.262Z,161.85
2023-01-07T05:01:31.153Z,154.57
2023-01-07T05:03:59.733Z,182.20
2023-01-07T05:06:28.264Z,205.70
2023-01-07T05:08:56.720Z,178.63
2023-01-07T05:11:25.089Z,150.45
2023-01-07T05:13:53.449Z,151.93
2023-01-07T05:16:23.748Z,168.93
2023-01-07T05:18:52.217Z,164.75
2023-01-07T05:21:20.824Z,167.05
2023-01-07T05:23:49.237Z,165.32
2023-01-07T05:26:17.779Z,220.63
2023-01-07T05:28:46.137Z,220.52
2023-01-07T05:31:14.630Z,168.48
2023-01-07T05:33:44.449Z,173.85
2023-01-07T05:36:12.933Z,154.63
2023-01-07T05:38:41.451Z,174.40
2023-01-07T05:41:09.959Z,166.07
2023-01-07T05:43:38.932Z,170.30
2023-01-07T05:46:07.543Z,227.88
2023-01-07T05:48:36.055Z,230.60
2023-01-07T05:51:06.465Z,213.40
2023-01-07T05:53:34.961Z,160.90
2023-01-07T05:56:03.428Z,167.50
2023-01-07T05:58:31.924Z,172.10
2023-01-07T06:01:00.564Z,194.10
2023-01-07T06:03:28.949Z,201.82
2023-01-07T06:05:57.429Z,173.88
2023-01-07T06:08:27.278Z,207.90
2023-01-07T06:10:55.739Z,185.55
2023-01-07T06:13:24.356Z,158.63
2023-01-07T06:15:52.878Z,184.30
2023-01-07T06:18:21.345Z,180.80
2023-01-07T06:20:49.957Z,174.20
2023-01-07T06:23:18.476Z,258.13
2023-01-07T06:25:48.435Z,266.80
2023-01-07T06:28:17.080Z,186.48
2023-01-07T06:30:47.068Z,157.57
2023-01-07T06:33:16.102Z,172.45
2023-01-07T06:35:46.003Z,199.73
2023-01-07T06:38:14.833Z,253.50
2023-01-07T06:40:44.808Z,146.48
2023-01-07T06:43:14.957Z,215.25
2023-01-07T06:45:43.529Z,224.45
2023-01-07T06:48:11.943Z,162.65
2023-01-07T06:50:40.473Z,175.05
2023-01-07T06:53:08.929Z,190.40
2023-01-07T06:55:37.633Z,145.65
2023-01-07T06:58:06.031Z,192.80
2023-01-07T07:00:36.045Z,147.63
2023-01-07T07:03:04.897Z,182.55
2023-01-07T07:05:33.616Z,130.43
2023-01-07T07:08:02.770Z,141.18
2023-01-07T07:10:31.119Z,164.10
2023-01-07T07:12:59.700Z,203.18
2023-01-07T07:15:28.239Z,159.70
2023-01-07T07:17:58.197Z,141.40
2023-01-07T07:20:26.633Z,182.02
2023-01-07T07:22:55.196Z,234.73
2023-01-07T07:25:23.675Z,184.77
2023-01-07T07:27:52.221Z,226.82
2023-01-07T07:30:20.998Z,267.63
2023-01-07T07:32:49.992Z,223.15
2023-01-07T07:36:18.419Z,170.07
2023-01-07T07:44:00.200Z,163.68
2023-01-07T07:47:23.351Z,131.50
2023-01-07T07:50:01.255Z,140.23
2023-01-07T07:52:33.437Z,177.52
2023-01-07T07:55:20.531Z,150.93
2023-01-07T07:57:50.331Z,203.80
2023-01-07T08:00:19.016Z,140.93
2023-01-07T08:02:47.515Z,147.65
2023-01-07T08:05:17.512Z,155.57
2023-01-07T08:07:46.153Z,154.95
2023-01-07T08:10:14.772Z,170.10
2023-01-07T08:12:44.474Z,208.50
2023-01-07T08:15:13.825Z,166.63
2023-01-07T08:17:52.799Z,144.95
2023-01-07T08:20:47.800Z,154.70
2023-01-07T08:23:29.426Z,155.63
2023-01-07T08:26:21.387Z,152.90
2023-01-07T08:29:03.004Z,144.10
2023-01-07T08:31:41.208Z,163.25
2023-01-07T08:37:27.643Z,167.70
2023-01-07T08:40:12.999Z,140.50
2023-01-07T08:42:43.914Z,139.00
2023-01-07T08:45:40.735Z,219.52
2023-01-07T08:48:09.581Z,136.88
2023-01-07T08:50:40.468Z,152.90
2023-01-07T08:53:12.759Z,140.95
2023-01-07T08:55:41.473Z,146.20
2023-01-07T08:58:10.214Z,159.73
2023-01-07T09:00:39.086Z,160.57
2023-01-07T09:03:10.508Z,153.15
2023-01-07T09:05:41.047Z,161.70
2023-01-07T09:08:20.960Z,216.77
2023-01-07T09:10:49.970Z,169.77
2023-01-07T09:13:19.010Z,165.35
2023-01-07T09:15:51.999Z,189.07
2023-01-07T09:18:20.755Z,182.43
2023-01-07T09:20:49.466Z,178.00
2023-01-07T09:23:27.100Z,175.60
2023-01-07T09:26:11.472Z,249.75
2023-01-07T09:28:52.688Z,215.10
2023-01-07T09:34:27.980Z,260.77
2023-01-07T09:36:57.919Z,185.38
2023-01-07T09:39:31.358Z,193.15
2023-01-07T09:44:59.210Z,293.08
2023-01-07T09:47:29.391Z,279.75
2023-01-07T09:50:02.306Z,221.38
2023-01-07T09:52:36.053Z,196.25
2023-01-07T09:55:09.581Z,204.65
2023-01-07T09:57:38.129Z,180.68
2023-01-07T10:00:26.584Z,196.32
2023-01-07T10:03:18.142Z,211.85
2023-01-07T10:06:05.065Z,179.93
2023-01-07T10:08:42.337Z,340.02
2023-01-07T10:11:24.078Z,232.30
2023-01-07T10:14:07.899Z,210.25
2023-01-07T10:16:42.307Z,202.18
2023-01-07T10:19:17.210Z,254.07
2023-01-07T10:21:53.099Z,304.40
2023-01-07T10:24:27.585Z,169.00
2023-01-07T10:33:02.534Z,169.10
2023-01-07T10:35:50.099Z,193.70
2023-01-07T10:38:30.277Z,268.23
2023-01-07T10:41:23.009Z,193.27
2023-01-07T10:44:06.867Z,185.10
2023-01-07T10:47:24.322Z,172.93
2023-01-07T10:50:34.275Z,169.80
2023-01-07T10:53:19.087Z,226.98
2023-01-07T10:58:48.607Z,165.77
2023-01-07T11:01:25.827Z,257.00
2023-01-07T11:03:55.858Z,379.77
2023-01-07T11:06:34.900Z,196.20
2023-01-07T11:09:19.072Z,175.15
2023-01-07T11:11:49.514Z,170.88
2023-01-07T11:14:24.552Z,153.15
2023-01-07T11:16:58.497Z,148.80
2023-01-07T11:19:43.873Z,211.95
2023-01-07T11:22:45.987Z,426.25
2023-01-07T11:28:53.035Z,185.95
2023-01-07T11:31:23.157Z,141.70
2023-01-07T11:34:01.511Z,159.98
2023-01-07T11:36:44.698Z,137.98
2023-01-07T11:39:19.859Z,203.07
2023-01-07T11:41:59.527Z,309.75
2023-01-07T11:44:28.368Z,167.05
2023-01-07T11:47:06.525Z,165.00
2023-01-07T11:49:46.339Z,217.85
2023-01-07T11:52:24.116Z,165.30
2023-01-07T11:54:53.045Z,162.10
2023-01-07T11:57:26.912Z,159.38
2023-01-07T12:00:14.036Z,186.85
2023-01-07T12:02:43.616Z,160.88
2023-01-07T12:05:24.808Z,172.07
2023-01-07T12:08:01.106Z,227.63
2023-01-07T12:10:36.465Z,187.75
2023-01-07T12:13:17.844Z,202.38
2023-01-07T12:15:53.440Z,155.02
2023-01-07T12:18:55.767Z,363.42
2023-01-07T12:21:50.280Z,212.45
2023-01-07T12:24:38.327Z,186.40
2023-01-07T12:27:26.064Z,184.52
2023-01-07T12:30:06.783Z,185.35
2023-01-07T12:32:42.774Z,263.08
2023-01-07T12:35:18.203Z,359.98
2023-01-07T12:37:57.066Z,185.88
2023-01-07T12:40:32.914Z,246.43
2023-01-07T12:43:20.171Z,167.52
2023-01-07T12:45:52.730Z,161.25
2023-01-07T12:48:26.884Z,208.02
2023-01-07T12:50:57.240Z,192.85
2023-01-07T12:53:39.526Z,193.27
2023-01-07T13:18:20.076Z,208.88
2023-01-07T13:21:25.255Z,194.65
2023-01-07T13:24:19.797Z,195.27
2023-01-07T13:26:53.456Z,191.13
2023-01-07T13:29:59.454Z,189.95
2023-01-07T13:33:02.650Z,176.95
2023-01-07T13:35:51.636Z,206.35
2023-01-07T13:39:00.960Z,186.10
2023-01-07T13:41:44.838Z,235.10
2023-01-07T13:44:43.499Z,330.90
2023-01-07T13:47:14.959Z,204.25
2023-01-07T13:49:56.964Z,214.85
2023-01-07T13:52:27.808Z,179.35
2023-01-07T13:55:00.959Z,191.38
2023-01-07T13:57:44.273Z,220.27
2023-01-07T14:00:39.858Z,320.98
2023-01-07T14:03:38.779Z,267.50
2023-01-07T14:06:43.871Z,202.13
2023-01-07T14:09:25.904Z,179.77
2023-01-07T14:12:34.646Z,189.10
2023-01-07T14:15:46.076Z,247.48
2023-01-07T14:18:57.686Z,204.23
2023-01-07T14:21:43.190Z,276.35
2023-01-07T14:24:31.972Z,462.25
2023-01-07T14:27:08.067Z,194.95
2023-01-07T14:29:43.357Z,183.88
2023-01-07T14:32:31.464Z,190.75
2023-01-07T14:35:02.645Z,288.48
2023-01-07T14:37:33.948Z,339.35
2023-01-07T14:40:03.351Z,208.65
2023-01-07T14:42:49.985Z,411.63
2023-01-07T14:45:52.562Z,188.55
2023-01-07T14:48:46.323Z,189.55
2023-01-07T14:51:34.488Z,189.57
2023-01-07T14:54:31.576Z,180.48
2023-01-07T14:57:22.974Z,171.98
2023-01-07T15:00:08.289Z,160.88
2023-01-07T15:03:09.329Z,174.15
2023-01-07T15:05:59.698Z,180.63
2023-01-07T15:08:51.135Z,161.57
2023-01-07T15:11:41.083Z,153.10
2023-01-07T15:14:35.684Z,301.65
2023-01-07T15:17:04.401Z,169.43
2023-01-07T15:19:36.828Z,284.52
2023-01-07T15:22:13.210Z,230.23
2023-01-07T15:24:46.233Z,197.10
2023-01-07T15:27:20.123Z,215.32
2023-01-07T15:29:53.670Z,172.25
2023-01-07T15:32:32.274Z,155.80
2023-01-07T15:35:00.857Z,180.82
2023-01-07T15:37:31.088Z,225.93
2023-01-07T15:40:03.443Z,155.38
2023-01-07T15:42:33.780Z,183.68
2023-01-07T15:45:02.461Z,183.52
2023-01-07T15:47:39.086Z,133.98
2023-01-07T15:50:34.078Z,146.40
2023-01-07T15:53:18.081Z,195.35
2023-01-07T15:55:53.034Z,147.10
2023-01-07T15:58:25.015Z,205.95
2023-01-07T16:00:54.564Z,274.88
2023-01-07T16:03:23.684Z,219.30
2023-01-07T16:05:53.516Z,253.68
2023-01-07T16:08:26.584Z,239.35
2023-01-07T16:11:03.689Z,217.35
2023-01-07T16:13:33.341Z,310.63
2023-01-07T16:16:05.664Z,408.75
2023-01-07T16:18:34.737Z,265.25
2023-01-07T16:21:06.923Z,321.85
2023-01-07T16:23:38.245Z,212.70
2023-01-07T16:26:08.619Z,255.45
2023-01-07T16:28:41.310Z,481.00
2023-01-07T16:31:15.684Z,295.48
2023-01-07T16:33:45.015Z,386.73
2023-01-07T16:36:15.623Z,319.20
2023-01-07T16:38:55.861Z,386.33
2023-01-07T16:41:26.106Z,365.35
2023-01-07T16:43:56.077Z,467.20
2023-01-07T16:46:26.793Z,362.40
2023-01-07T16:49:27.494Z,364.70
2023-01-07T16:52:05.605Z,305.38
2023-01-07T16:54:39.979Z,282.42
2023-01-07T16:57:19.610Z,220.45
2023-01-07T16:59:53.790Z,179.50
2023-01-07T17:02:32.257Z,375.13
2023-01-07T17:05:19.927Z,396.90
2023-01-07T17:07:50.294Z,375.90
2023-01-07T17:10:27.845Z,420.45
2023-01-07T17:12:59.639Z,410.70
2023-01-07T17:15:35.544Z,351.10
2023-01-07T17:18:29.249Z,253.60
2023-01-07T17:20:59.353Z,326.27
2023-01-07T17:23:40.950Z,240.02
2023-01-07T17:26:21.056Z,208.52
2023-01-07T17:28:52.101Z,279.67
2023-01-07T17:31:21.432Z,199.85
2023-01-07T17:33:50.171Z,134.75
2023-01-07T17:36:33.528Z,226.25
2023-01-07T17:39:02.744Z,222.23
2023-01-07T17:41:53.819Z,141.93
2023-01-07T17:44:22.721Z,158.75
2023-01-07T17:46:51.406Z,213.20
2023-01-07T17:49:24.332Z,237.13
2023-01-07T17:55:12.822Z,228.63
2023-01-07T17:58:16.280Z,204.93
2023-01-07T18:00:45.897Z,223.50
2023-01-07T18:03:17.307Z,301.75
2023-01-07T18:05:51.332Z,365.25
2023-01-07T18:11:15.044Z,366.45
2023-01-07T18:13:45.402Z,339.17
2023-01-07T18:16:14.645Z,305.48
2023-01-07T18:18:43.375Z,410.60
2023-01-07T18:21:13.611Z,334.60
2023-01-07T18:23:42.389Z,344.90
2023-01-07T18:26:12.978Z,364.20
2023-01-07T18:31:29.737Z,332.33
2023-01-07T18:34:06.844Z,288.08
2023-01-07T18:36:35.502Z,322.63
2023-01-07T18:39:04.491Z,337.35
2023-01-07T18:41:34.880Z,408.40
2023-01-07T18:44:08.341Z,350.25
2023-01-07T18:46:38.576Z,325.02
2023-01-07T18:49:11.469Z,340.30
2023-01-07T18:51:39.878Z,449.15
2023-01-07T18:54:08.744Z,382.15
2023-01-07T18:56:37.755Z,327.40
2023-01-07T18:59:06.565Z,332.17
2023-01-07T19:01:35.459Z,308.52
2023-01-07T19:04:06.990Z,323.75
2023-01-07T19:06:35.813Z,378.17
2023-01-07T19:09:05.458Z,444.60
2023-01-07T19:11:34.540Z,402.58
2023-01-07T19:14:03.648Z,352.70
2023-01-07T19:16:32.533Z,409.70
2023-01-07T19:19:02.109Z,412.13
2023-01-07T19:21:32.216Z,421.40
2023-01-07T19:24:04.505Z,337.98
2023-01-07T19:26:33.841Z,299.13
2023-01-07T19:29:03.311Z,366.02
2023-01-07T19:31:31.983Z,401.40
2023-01-07T19:34:00.708Z,345.50
2023-01-07T19:36:29.343Z,442.80
2023-01-07T19:38:59.939Z,470.27
2023-01-07T19:41:28.702Z,303.10
2023-01-07T19:44:01.544Z,355.40
2023-01-07T19:46:33.409Z,395.52
2023-01-07T19:49:02.131Z,335.92
2023-01-07T19:51:32.832Z,419.90
2023-01-07T19:54:03.453Z,340.95
2023-01-07T19:56:44.998Z,308.25
2023-01-07T19:59:52.163Z,360.60
2023-01-07T20:02:25.009Z,269.23
2023-01-07T20:04:53.681Z,419.63
2023-01-07T20:07:22.898Z,276.17
2023-01-07T20:09:53.162Z,352.02
2023-01-07T20:23:28.817Z,347.30
2023-01-07T20:26:18.353Z,313.00
2023-01-07T20:43:48.373Z,265.30
2023-01-07T20:51:07.412Z,259.85
2023-01-07T21:12:38.591Z,320.20
2023-01-07T21:19:35.525Z,317.85
2023-01-07T21:50:47.636Z,265.75
2023-01-07T21:53:16.337Z,315.92
2023-01-07T21:55:46.497Z,253.80
2023-01-07T21:58:15.123Z,241.40
2023-01-07T22:00:43.681Z,287.25
2023-01-07T22:03:12.238Z,252.88
2023-01-07T22:05:41.716Z,332.15
2023-01-07T22:08:13.447Z,310.73
2023-01-07T22:10:43.274Z,247.63
2023-01-07T22:13:15.745Z,298.58
2023-01-07T22:15:44.357Z,285.02
2023-01-07T22:18:13.094Z,375.25
2023-01-07T22:20:41.659Z,366.90
2023-01-07T22:23:15.821Z,323.50
2023-01-07T22:25:44.577Z,363.20
2023-01-07T22:28:16.298Z,258.45
2023-01-07T22:30:47.360Z,275.02
2023-01-07T22:33:15.813Z,300.70
2023-01-07T22:35:44.392Z,343.17
2023-01-07T22:38:14.557Z,361.25
2023-01-07T22:40:43.553Z,304.63
2023-01-07T22:43:16.422Z,294.35
2023-01-07T22:45:48.986Z,354.77
2023-01-07T22:48:19.785Z,245.23
2023-01-07T22:50:48.455Z,305.55
2023-01-07T22:53:17.019Z,292.20
2023-01-07T22:55:48.914Z,266.48
2023-01-07T22:58:19.796Z,295.92
2023-01-07T23:01:08.108Z,314.83
2023-01-07T23:03:36.862Z,308.55
2023-01-07T23:06:05.533Z,321.80
2023-01-07T23:08:34.411Z,272.42
2023-01-07T23:11:03.191Z,312.40
2023-01-07T23:13:33.330Z,315.98
2023-01-07T23:16:03.140Z,356.80
2023-01-07T23:18:32.145Z,341.27
2023-01-07T23:21:00.630Z,379.75
2023-01-07T23:23:29.149Z,322.38
2023-01-07T23:25:57.900Z,394.70
2023-01-07T23:28:26.482Z,357.17
2023-01-07T23:30:56.416Z,376.33
2023-01-07T23:33:24.982Z,377.73
2023-01-07T23:35:53.592Z,289.67
2023-01-07T23:38:22.024Z,311.40
2023-01-07T23:41:01.300Z,167.25
2023-01-07T23:43:30.035Z,256.23
2023-01-07T23:46:00.879Z,327.70
2023-01-07T23:48:30.619Z,406.80
2023-01-07T23:51:07.433Z,252.98
2023-01-07T23:53:36.098Z,262.58
2023-01-07T23:56:05.346Z,300.42
2023-01-07T23:58:34.283Z,295.35
